sensor_id;sensor_type;location;lat;lon;timestamp;pressure;altitude;pressure_sealevel;temperature;humidity
41688;BME280;27371;42.686;23.362;2023-05-23T00:01:20;165364.44;;;12.14;100.00
41688;BME280;27371;42.686;23.362;2023-05-23T00:03:47;165353.78;;;12.10;100.00
41688;BME280;27371;42.686;23.362;2023-05-23T00:06:13;165395.19;;;12.26;100.00
41688;BME280;27371;42.686;23.362;2023-05-23T00:08:39;165348.41;;;12.08;100.00
41688;BME280;27371;42.686;23.362;2023-05-23T00:11:04;165369.81;;;12.16;100.00
41688;BME280;27371;42.686;23.362;2023-05-23T00:13:30;165367.09;;;12.15;100.00
41688;BME280;27371;42.686;23.362;2023-05-23T00:15:59;165372.47;;;12.17;100.00
41688;BME280;27371;42.686;23.362;2023-05-23T00:18:24;165355.09;;;12.11;100.00
41688;BME280;27371;42.686;23.362;2023-05-23T00:20:50;165325.69;;;11.99;100.00
41688;BME280;27371;42.686;23.362;2023-05-23T00:23:16;165371.13;;;12.17;100.00
41688;BME280;27371;42.686;23.362;2023-05-23T00:25:45;165348.41;;;12.08;100.00
41688;BME280;27371;42.686;23.362;2023-05-23T00:28:16;165341.72;;;12.06;100.00
41688;BME280;27371;42.686;23.362;2023-05-23T00:30:42;165359.06;;;12.12;100.00
41688;BME280;27371;42.686;23.362;2023-05-23T00:33:08;165339.00;;;12.04;100.00
41688;BME280;27371;42.686;23.362;2023-05-23T00:35:33;165336.34;;;12.03;100.00
41688;BME280;27371;42.686;23.362;2023-05-23T00:37:59;165321.63;;;11.98;100.00
41688;BME280;27371;42.686;23.362;2023-05-23T00:40:26;165284.16;;;11.84;100.00
41688;BME280;27371;42.686;23.362;2023-05-23T00:42:52;165330.97;;;12.01;100.00
41688;BME280;27371;42.686;23.362;2023-05-23T00:45:17;165309.59;;;11.93;100.00
41688;BME280;27371;42.686;23.362;2023-05-23T00:47:44;165368.47;;;12.16;100.00
41688;BME280;27371;42.686;23.362;2023-05-23T00:50:12;165316.28;;;11.96;100.00
41688;BME280;27371;42.686;23.362;2023-05-23T00:52:39;165310.97;;;11.94;100.00
41688;BME280;27371;42.686;23.362;2023-05-23T00:55:05;165328.31;;;12.00;100.00
41688;BME280;27371;42.686;23.362;2023-05-23T00:57:33;165320.31;;;11.97;100.00
41688;BME280;27371;42.686;23.362;2023-05-23T01:00:00;165301.56;;;11.90;100.00
41688;BME280;27371;42.686;23.362;2023-05-23T01:02:26;165347.06;;;12.08;100.00
41688;BME280;27371;42.686;23.362;2023-05-23T01:04:52;165281.44;;;11.82;99.84
41688;BME280;27371;42.686;23.362;2023-05-23T01:07:22;165273.44;;;11.79;100.00
41688;BME280;27371;42.686;23.362;2023-05-23T01:09:48;165257.38;;;11.73;100.00
41688;BME280;27371;42.686;23.362;2023-05-23T01:15:10;165213.28;;;11.56;100.00
41688;BME280;27371;42.686;23.362;2023-05-23T01:17:54;165199.88;;;11.51;100.00
41688;BME280;27371;42.686;23.362;2023-05-23T01:20:29;165199.88;;;11.51;100.00
41688;BME280;27371;42.686;23.362;2023-05-23T01:23:12;165219.97;;;11.59;100.00
41688;BME280;27371;42.686;23.362;2023-05-23T01:26:06;165151.75;;;11.33;100.00
41688;BME280;27371;42.686;23.362;2023-05-23T01:28:42;165187.84;;;11.47;100.00
41688;BME280;27371;42.686;23.362;2023-05-23T01:31:10;165182.53;;;11.45;100.00
41688;BME280;27371;42.686;23.362;2023-05-23T01:33:37;165181.19;;;11.44;100.00
41688;BME280;27371;42.686;23.362;2023-05-23T01:36:04;165236.00;;;11.65;100.00
41688;BME280;27371;42.686;23.362;2023-05-23T01:38:30;165226.66;;;11.62;100.00
41688;BME280;27371;42.686;23.362;2023-05-23T01:40:56;165248.03;;;11.70;100.00
41688;BME280;27371;42.686;23.362;2023-05-23T01:43:22;165249.38;;;11.70;100.00
41688;BME280;27371;42.686;23.362;2023-05-23T01:45:49;165252.03;;;11.71;100.00
41688;BME280;27371;42.686;23.362;2023-05-23T01:48:16;165253.41;;;11.72;100.00
41688;BME280;27371;42.686;23.362;2023-05-23T01:50:43;165250.69;;;11.71;100.00
41688;BME280;27371;42.686;23.362;2023-05-23T01:53:13;165199.88;;;11.51;100.00
41688;BME280;27371;42.686;23.362;2023-05-23T01:55:40;165202.59;;;11.52;100.00
41688;BME280;27371;42.686;23.362;2023-05-23T01:58:06;165269.44;;;11.78;100.00
41688;BME280;27371;42.686;23.362;2023-05-23T02:00:32;165224.00;;;11.61;100.00
41688;BME280;27371;42.686;23.362;2023-05-23T02:02:58;165262.75;;;11.75;100.00
41688;BME280;27371;42.686;23.362;2023-05-23T02:05:24;165269.44;;;11.78;100.00
41688;BME280;27371;42.686;23.362;2023-05-23T02:07:50;165269.44;;;11.78;100.00
41688;BME280;27371;42.686;23.362;2023-05-23T02:10:15;165226.66;;;11.62;100.00
41688;BME280;27371;42.686;23.362;2023-05-23T02:12:41;165265.41;;;11.76;100.00
41688;BME280;27371;42.686;23.362;2023-05-23T02:15:07;165270.78;;;11.78;100.00
41688;BME280;27371;42.686;23.362;2023-05-23T02:17:32;165269.44;;;11.78;100.00
41688;BME280;27371;42.686;23.362;2023-05-23T02:19:58;165270.78;;;11.78;100.00
41688;BME280;27371;42.686;23.362;2023-05-23T02:22:24;165234.66;;;11.65;100.00
41688;BME280;27371;42.686;23.362;2023-05-23T02:24:50;165285.47;;;11.84;100.00
41688;BME280;27371;42.686;23.362;2023-05-23T02:27:16;165262.75;;;11.75;100.00
41688;BME280;27371;42.686;23.362;2023-05-23T02:29:41;165278.78;;;11.81;100.00
41688;BME280;27371;42.686;23.362;2023-05-23T02:32:07;165294.88;;;11.88;100.00
41688;BME280;27371;42.686;23.362;2023-05-23T02:34:33;165288.13;;;11.85;100.00
41688;BME280;27371;42.686;23.362;2023-05-23T02:36:58;165301.56;;;11.90;100.00
41688;BME280;27371;42.686;23.362;2023-05-23T02:39:25;165313.63;;;11.95;100.00
41688;BME280;27371;42.686;23.362;2023-05-23T02:41:51;165280.13;;;11.82;100.00
41688;BME280;27371;42.686;23.362;2023-05-23T02:44:16;165244.00;;;11.68;100.00
41688;BME280;27371;42.686;23.362;2023-05-23T02:46:44;165297.59;;;11.89;100.00
41688;BME280;27371;42.686;23.362;2023-05-23T02:49:10;165302.91;;;11.91;100.00
41688;BME280;27371;42.686;23.362;2023-05-23T02:51:35;165233.34;;;11.64;100.00
41688;BME280;27371;42.686;23.362;2023-05-23T02:54:01;165226.66;;;11.62;100.00
41688;BME280;27371;42.686;23.362;2023-05-23T02:56:26;165203.94;;;11.53;100.00
41688;BME280;27371;42.686;23.362;2023-05-23T02:58:52;165229.31;;;11.63;100.00
41688;BME280;27371;42.686;23.362;2023-05-23T03:01:18;165133.06;;;11.26;100.00
41688;BME280;27371;42.686;23.362;2023-05-23T03:03:44;165185.19;;;11.46;100.00
41688;BME280;27371;42.686;23.362;2023-05-23T03:06:10;165129.03;;;11.24;100.00
41688;BME280;27371;42.686;23.362;2023-05-23T03:08:42;164927.22;;;10.47;100.00
41688;BME280;27371;42.686;23.362;2023-05-23T03:11:07;165126.38;;;11.23;100.00
41688;BME280;27371;42.686;23.362;2023-05-23T03:13:34;165135.72;;;11.27;100.00
41688;BME280;27371;42.686;23.362;2023-05-23T03:15:59;165154.44;;;11.34;100.00
41688;BME280;27371;42.686;23.362;2023-05-23T03:18:25;165169.16;;;11.40;100.00
41688;BME280;27371;42.686;23.362;2023-05-23T03:20:50;165242.69;;;11.68;100.00
41688;BME280;27371;42.686;23.362;2023-05-23T03:23:16;165272.09;;;11.79;99.62
41688;BME280;27371;42.686;23.362;2023-05-23T03:25:42;165286.81;;;11.85;98.98
41688;BME280;27371;42.686;23.362;2023-05-23T03:28:07;165217.31;;;11.58;97.75
41688;BME280;27371;42.686;23.362;2023-05-23T03:30:33;165182.53;;;11.45;97.44
41688;BME280;27371;42.686;23.362;2023-05-23T03:32:58;165277.47;;;11.81;98.00
41688;BME280;27371;42.686;23.362;2023-05-23T03:35:27;165309.59;;;11.93;97.66
41688;BME280;27371;42.686;23.362;2023-05-23T03:37:52;165456.75;;;12.50;96.52
41688;BME280;27371;42.686;23.362;2023-05-23T03:40:18;165550.41;;;12.85;94.82
41688;BME280;27371;42.686;23.362;2023-05-23T03:42:43;165595.91;;;13.03;92.05
41688;BME280;27371;42.686;23.362;2023-05-23T03:45:09;165657.53;;;13.26;90.77
41688;BME280;27371;42.686;23.362;2023-05-23T03:47:35;165752.56;;;13.63;87.92
41688;BME280;27371;42.686;23.362;2023-05-23T03:50:00;165901.16;;;14.19;85.85
41688;BME280;27371;42.686;23.362;2023-05-23T03:52:26;166052.56;;;14.77;83.13
41688;BME280;27371;42.686;23.362;2023-05-23T03:54:52;166177.19;;;15.25;80.84
41688;BME280;27371;42.686;23.362;2023-05-23T03:57:18;166273.66;;;15.62;77.70
41688;BME280;27371;42.686;23.362;2023-05-23T03:59:43;166308.56;;;15.75;75.77
41688;BME280;27371;42.686;23.362;2023-05-23T04:02:08;166398.34;;;16.09;72.37
41688;BME280;27371;42.686;23.362;2023-05-23T04:04:34;166523.03;;;16.57;71.54
41688;BME280;27371;42.686;23.362;2023-05-23T04:07:00;166621.00;;;16.94;69.31
41688;BME280;27371;42.686;23.362;2023-05-23T04:09:26;166572.66;;;16.76;66.58
41688;BME280;27371;42.686;23.362;2023-05-23T04:11:52;166575.41;;;16.77;67.57
41688;BME280;27371;42.686;23.362;2023-05-23T04:14:17;166525.75;;;16.58;68.17
41688;BME280;27371;42.686;23.362;2023-05-23T04:16:46;166437.25;;;16.24;68.54
41688;BME280;27371;42.686;23.362;2023-05-23T04:19:12;166340.72;;;15.87;70.13
41688;BME280;27371;42.686;23.362;2023-05-23T04:21:37;166232.09;;;15.46;71.77
41688;BME280;27371;42.686;23.362;2023-05-23T04:24:03;166173.16;;;15.23;73.39
41688;BME280;27371;42.686;23.362;2023-05-23T04:26:29;166107.50;;;14.98;74.50
41688;BME280;27371;42.686;23.362;2023-05-23T04:28:54;166028.47;;;14.68;75.45
41688;BME280;27371;42.686;23.362;2023-05-23T04:31:20;165933.31;;;14.32;77.06
41688;BME280;27371;42.686;23.362;2023-05-23T04:33:49;165898.50;;;14.18;78.23
41688;BME280;27371;42.686;23.362;2023-05-23T04:36:14;165814.13;;;13.86;79.57
41688;BME280;27371;42.686;23.362;2023-05-23T04:38:40;165743.16;;;13.59;80.19
41688;BME280;27371;42.686;23.362;2023-05-23T04:41:06;165641.38;;;13.20;81.57
41688;BME280;27371;42.686;23.362;2023-05-23T04:43:34;165531.66;;;12.78;82.85
41688;BME280;27371;42.686;23.362;2023-05-23T04:46:04;165570.50;;;12.93;83.66
41688;BME280;27371;42.686;23.362;2023-05-23T04:48:29;165550.41;;;12.85;84.44
41688;BME280;27371;42.686;23.362;2023-05-23T04:50:55;165520.97;;;12.74;85.13
41688;BME280;27371;42.686;23.362;2023-05-23T04:53:22;165446.03;;;12.45;85.93
41688;BME280;27371;42.686;23.362;2023-05-23T04:55:47;165424.63;;;12.37;86.34
41688;BME280;27371;42.686;23.362;2023-05-23T04:58:13;165413.94;;;12.33;87.49
41688;BME280;27371;42.686;23.362;2023-05-23T05:00:38;165401.88;;;12.29;87.80
41688;BME280;27371;42.686;23.362;2023-05-23T05:03:04;165371.13;;;12.17;88.17
41688;BME280;27371;42.686;23.362;2023-05-23T05:05:30;165345.69;;;12.07;88.84
41688;BME280;27371;42.686;23.362;2023-05-23T05:07:55;165352.38;;;12.10;90.28
41688;BME280;27371;42.686;23.362;2023-05-23T05:10:21;165335.03;;;12.03;91.04
41688;BME280;27371;42.686;23.362;2023-05-23T05:12:47;165261.41;;;11.75;91.66
41688;BME280;27371;42.686;23.362;2023-05-23T05:15:16;165199.88;;;11.51;92.07
41688;BME280;27371;42.686;23.362;2023-05-23T05:17:42;165245.34;;;11.69;91.67
41688;BME280;27371;42.686;23.362;2023-05-23T05:20:08;165198.56;;;11.51;92.43
41688;BME280;27371;42.686;23.362;2023-05-23T05:22:35;165182.53;;;11.45;94.45
41688;BME280;27371;42.686;23.362;2023-05-23T05:25:02;165063.53;;;10.99;96.52
41688;BME280;27371;42.686;23.362;2023-05-23T05:27:28;165236.00;;;11.65;98.36
41688;BME280;27371;42.686;23.362;2023-05-23T05:29:54;165189.22;;;11.47;98.78
41688;BME280;27371;42.686;23.362;2023-05-23T05:32:23;165327.00;;;12.00;98.59
41688;BME280;27371;42.686;23.362;2023-05-23T05:34:48;165341.72;;;12.06;97.92
41688;BME280;27371;42.686;23.362;2023-05-23T05:37:15;165339.00;;;12.04;97.57
41688;BME280;27371;42.686;23.362;2023-05-23T05:39:40;165365.78;;;12.15;97.33
41688;BME280;27371;42.686;23.362;2023-05-23T05:42:06;165379.16;;;12.20;97.14
41688;BME280;27371;42.686;23.362;2023-05-23T05:44:32;165327.00;;;12.00;96.97
41688;BME280;27371;42.686;23.362;2023-05-23T05:46:57;165380.47;;;12.20;97.55
41688;BME280;27371;42.686;23.362;2023-05-23T05:49:23;165352.38;;;12.10;97.46
41688;BME280;27371;42.686;23.362;2023-05-23T05:51:48;165388.50;;;12.23;97.41
41688;BME280;27371;42.686;23.362;2023-05-23T05:54:14;165411.25;;;12.32;96.83
41688;BME280;27371;42.686;23.362;2023-05-23T05:56:40;165426.00;;;12.38;96.69
41688;BME280;27371;42.686;23.362;2023-05-23T05:59:06;165438.00;;;12.42;96.09
41688;BME280;27371;42.686;23.362;2023-05-23T06:01:32;165522.31;;;12.75;95.41
41688;BME280;27371;42.686;23.362;2023-05-23T06:03:59;165554.41;;;12.87;95.16
41688;BME280;27371;42.686;23.362;2023-05-23T06:06:25;165542.41;;;12.82;94.92
41688;BME280;27371;42.686;23.362;2023-05-23T06:08:50;165625.34;;;13.14;94.43
41688;BME280;27371;42.686;23.362;2023-05-23T06:11:16;165642.75;;;13.21;93.65
41688;BME280;27371;42.686;23.362;2023-05-23T06:13:45;165676.25;;;13.33;92.45
41688;BME280;27371;42.686;23.362;2023-05-23T06:16:10;165700.38;;;13.43;92.38
41688;BME280;27371;42.686;23.362;2023-05-23T06:18:36;165693.66;;;13.40;92.05
41688;BME280;27371;42.686;23.362;2023-05-23T06:21:01;165711.06;;;13.47;91.87
41688;BME280;27371;42.686;23.362;2023-05-23T06:23:27;165716.41;;;13.49;91.85
41688;BME280;27371;42.686;23.362;2023-05-23T06:25:53;165775.31;;;13.71;91.79
41688;BME280;27371;42.686;23.362;2023-05-23T06:28:18;165780.69;;;13.73;89.87
41688;BME280;27371;42.686;23.362;2023-05-23T06:30:44;165790.03;;;13.77;89.52
41688;BME280;27371;42.686;23.362;2023-05-23T06:33:09;165798.06;;;13.80;89.53
41688;BME280;27371;42.686;23.362;2023-05-23T06:35:36;165763.25;;;13.67;89.88
41688;BME280;27371;42.686;23.362;2023-05-23T06:38:01;165686.97;;;13.38;90.51
41688;BME280;27371;42.686;23.362;2023-05-23T06:40:27;165776.66;;;13.72;90.91
41688;BME280;27371;42.686;23.362;2023-05-23T06:42:52;165765.97;;;13.68;90.76
41688;BME280;27371;42.686;23.362;2023-05-23T06:45:18;165786.00;;;13.75;90.81
41688;BME280;27371;42.686;23.362;2023-05-23T06:47:43;165834.22;;;13.94;90.72
41688;BME280;27371;42.686;23.362;2023-05-23T06:50:09;165843.56;;;13.97;89.83
41688;BME280;27371;42.686;23.362;2023-05-23T06:52:35;165844.97;;;13.98;89.60
41688;BME280;27371;42.686;23.362;2023-05-23T06:55:01;165889.13;;;14.15;89.58
41688;BME280;27371;42.686;23.362;2023-05-23T06:57:26;165973.47;;;14.47;89.06
41688;BME280;27371;42.686;23.362;2023-05-23T06:59:52;166037.81;;;14.72;87.15
41688;BME280;27371;42.686;23.362;2023-05-23T07:02:17;166145.00;;;15.12;85.84
41688;BME280;27371;42.686;23.362;2023-05-23T07:04:43;166221.41;;;15.42;84.49
41688;BME280;27371;42.686;23.362;2023-05-23T07:07:09;166311.22;;;15.76;82.90
41688;BME280;27371;42.686;23.362;2023-05-23T07:09:34;166405.06;;;16.12;79.96
41688;BME280;27371;42.686;23.362;2023-05-23T07:12:00;166528.41;;;16.59;78.23
41688;BME280;27371;42.686;23.362;2023-05-23T07:14:26;166529.75;;;16.59;76.97
41688;BME280;27371;42.686;23.362;2023-05-23T07:16:51;166521.69;;;16.56;77.10
41688;BME280;27371;42.686;23.362;2023-05-23T07:19:16;166517.69;;;16.55;77.17
41688;BME280;27371;42.686;23.362;2023-05-23T07:21:42;166563.28;;;16.72;76.49
41688;BME280;27371;42.686;23.362;2023-05-23T07:24:07;166579.41;;;16.78;75.87
41688;BME280;27371;42.686;23.362;2023-05-23T07:26:33;166682.72;;;17.18;75.23
41688;BME280;27371;42.686;23.362;2023-05-23T07:28:59;166733.69;;;17.37;74.23
41688;BME280;27371;42.686;23.362;2023-05-23T07:31:24;166748.44;;;17.43;73.53
41688;BME280;27371;42.686;23.362;2023-05-23T07:33:50;166772.56;;;17.52;73.46
41688;BME280;27371;42.686;23.362;2023-05-23T07:36:15;166828.94;;;17.73;72.63
41688;BME280;27371;42.686;23.362;2023-05-23T07:38:41;166835.66;;;17.76;71.99
41688;BME280;27371;42.686;23.362;2023-05-23T07:41:06;166882.63;;;17.94;71.36
41688;BME280;27371;42.686;23.362;2023-05-23T07:43:32;166928.31;;;18.11;71.34
41688;BME280;27371;42.686;23.362;2023-05-23T07:45:57;166971.19;;;18.28;70.07
41688;BME280;27371;42.686;23.362;2023-05-23T07:48:23;166977.91;;;18.30;69.65
41688;BME280;27371;42.686;23.362;2023-05-23T07:50:51;166973.91;;;18.29;69.56
41688;BME280;27371;42.686;23.362;2023-05-23T07:53:19;167027.59;;;18.49;69.70
41688;BME280;27371;42.686;23.362;2023-05-23T07:55:45;167063.81;;;18.63;70.33
41688;BME280;27371;42.686;23.362;2023-05-23T07:58:11;167061.16;;;18.62;68.65
41688;BME280;27371;42.686;23.362;2023-05-23T08:00:36;167071.88;;;18.66;69.36
41688;BME280;27371;42.686;23.362;2023-05-23T08:03:03;167020.88;;;18.46;68.63
41688;BME280;27371;42.686;23.362;2023-05-23T08:05:28;167041.00;;;18.54;68.78
41688;BME280;27371;42.686;23.362;2023-05-23T08:07:54;167075.94;;;18.67;69.59
41688;BME280;27371;42.686;23.362;2023-05-23T08:10:20;167067.88;;;18.64;69.23
41688;BME280;27371;42.686;23.362;2023-05-23T08:12:45;167100.13;;;18.77;68.94
41688;BME280;27371;42.686;23.362;2023-05-23T08:15:11;167136.38;;;18.90;68.08
41688;BME280;27371;42.686;23.362;2023-05-23T08:17:36;167168.63;;;19.03;67.95
41688;BME280;27371;42.686;23.362;2023-05-23T08:20:02;167175.34;;;19.05;68.54
41688;BME280;27371;42.686;23.362;2023-05-23T08:22:29;167173.94;;;19.05;68.21
41688;BME280;27371;42.686;23.362;2023-05-23T08:24:55;167164.56;;;19.01;68.82
41688;BME280;27371;42.686;23.362;2023-05-23T08:27:20;167120.28;;;18.84;69.63
41688;BME280;27371;42.686;23.362;2023-05-23T08:29:47;166969.88;;;18.27;70.28
41688;BME280;27371;42.686;23.362;2023-05-23T08:32:13;167065.16;;;18.63;70.91
41688;BME280;27371;42.686;23.362;2023-05-23T08:34:39;167160.56;;;19.00;70.18
41688;BME280;27371;42.686;23.362;2023-05-23T08:37:04;167190.09;;;19.11;69.83
41688;BME280;27371;42.686;23.362;2023-05-23T08:39:30;167215.59;;;19.21;69.54
41688;BME280;27371;42.686;23.362;2023-05-23T08:41:56;167203.53;;;19.16;68.17
41688;BME280;27371;42.686;23.362;2023-05-23T08:44:21;167183.38;;;19.08;69.07
41688;BME280;27371;42.686;23.362;2023-05-23T08:46:47;167210.19;;;19.19;69.06
41688;BME280;27371;42.686;23.362;2023-05-23T08:49:16;167272.00;;;19.42;69.07
41688;BME280;27371;42.686;23.362;2023-05-23T08:51:42;167269.34;;;19.41;68.39
41688;BME280;27371;42.686;23.362;2023-05-23T08:54:09;167356.66;;;19.74;67.61
41688;BME280;27371;42.686;23.362;2023-05-23T08:56:37;167328.41;;;19.64;67.26
41688;BME280;27371;42.686;23.362;2023-05-23T08:59:03;167282.75;;;19.46;65.61
41688;BME280;27371;42.686;23.362;2023-05-23T09:01:29;167356.66;;;19.74;65.58
41688;BME280;27371;42.686;23.362;2023-05-23T09:03:55;167421.16;;;19.99;63.49
41688;BME280;27371;42.686;23.362;2023-05-23T09:06:24;167375.44;;;19.82;63.15
41688;BME280;27371;42.686;23.362;2023-05-23T09:08:50;167493.69;;;20.27;63.50
41688;BME280;27371;42.686;23.362;2023-05-23T09:11:16;167457.41;;;20.13;63.00
41688;BME280;27371;42.686;23.362;2023-05-23T09:13:41;167517.84;;;20.36;62.55
41688;BME280;27371;42.686;23.362;2023-05-23T09:16:09;167593.13;;;20.64;62.20
41688;BME280;27371;42.686;23.362;2023-05-23T09:18:39;167653.63;;;20.87;61.67
41688;BME280;27371;42.686;23.362;2023-05-23T09:21:07;167687.19;;;21.00;60.09
41688;BME280;27371;42.686;23.362;2023-05-23T09:23:34;167664.38;;;20.91;59.56
41688;BME280;27371;42.686;23.362;2023-05-23T09:26:02;167692.59;;;21.02;60.46
41688;BME280;27371;42.686;23.362;2023-05-23T09:28:28;167712.75;;;21.10;58.51
41688;BME280;27371;42.686;23.362;2023-05-23T09:31:00;167777.28;;;21.34;57.71
41688;BME280;27371;42.686;23.362;2023-05-23T09:36:03;167781.28;;;21.36;53.93
41688;BME280;27371;42.686;23.362;2023-05-23T09:38:29;167806.91;;;21.46;50.68
41688;BME280;27371;42.686;23.362;2023-05-23T09:40:55;167855.31;;;21.64;50.06
41688;BME280;27371;42.686;23.362;2023-05-23T09:43:22;167784.06;;;21.37;48.48
41688;BME280;27371;42.686;23.362;2023-05-23T09:45:47;167925.19;;;21.91;46.55
41688;BME280;27371;42.686;23.362;2023-05-23T09:48:13;167925.19;;;21.91;46.50
41688;BME280;27371;42.686;23.362;2023-05-23T09:50:38;167987.06;;;22.14;46.77
41688;BME280;27371;42.686;23.362;2023-05-23T09:53:04;168012.66;;;22.24;46.65
41688;BME280;27371;42.686;23.362;2023-05-23T09:55:30;168009.97;;;22.23;45.55
41688;BME280;27371;42.686;23.362;2023-05-23T09:57:58;167993.81;;;22.17;45.91
41688;BME280;27371;42.686;23.362;2023-05-23T10:00:24;167992.41;;;22.16;44.62
41688;BME280;27371;42.686;23.362;2023-05-23T10:02:53;167995.13;;;22.17;44.70
41688;BME280;27371;42.686;23.362;2023-05-23T10:05:30;167992.41;;;22.16;44.01
41688;BME280;27371;42.686;23.362;2023-05-23T10:08:01;167964.22;;;22.06;44.03
41688;BME280;27371;42.686;23.362;2023-05-23T10:10:30;168053.00;;;22.39;43.59
41688;BME280;27371;42.686;23.362;2023-05-23T10:12:59;168057.03;;;22.41;41.79
41688;BME280;27371;42.686;23.362;2023-05-23T10:15:30;168007.31;;;22.22;42.45
41688;BME280;27371;42.686;23.362;2023-05-23T10:18:09;168043.63;;;22.36;42.38
41688;BME280;27371;42.686;23.362;2023-05-23T10:20:38;168008.63;;;22.22;40.41
41688;BME280;27371;42.686;23.362;2023-05-23T10:23:04;167973.63;;;22.09;40.02
41688;BME280;27371;42.686;23.362;2023-05-23T10:25:30;167966.88;;;22.07;38.86
41688;BME280;27371;42.686;23.362;2023-05-23T10:27:58;167914.47;;;21.87;39.56
41688;BME280;27371;42.686;23.362;2023-05-23T10:30:27;167927.91;;;21.92;40.55
41688;BME280;27371;42.686;23.362;2023-05-23T10:32:55;167958.81;;;22.04;40.84
41688;BME280;27371;42.686;23.362;2023-05-23T10:35:39;167927.91;;;21.92;39.44
41688;BME280;27371;42.686;23.362;2023-05-23T10:43:28;167911.75;;;21.86;40.94
41688;BME280;27371;42.686;23.362;2023-05-23T10:45:55;167934.59;;;21.94;40.93
41688;BME280;27371;42.686;23.362;2023-05-23T10:48:34;167966.88;;;22.07;40.96
41688;BME280;27371;42.686;23.362;2023-05-23T10:51:07;167981.69;;;22.12;40.47
41688;BME280;27371;42.686;23.362;2023-05-23T10:53:37;167957.50;;;22.03;40.38
41688;BME280;27371;42.686;23.362;2023-05-23T10:56:07;167946.72;;;21.99;39.46
41688;BME280;27371;42.686;23.362;2023-05-23T10:58:40;167985.75;;;22.14;39.86
41688;BME280;27371;42.686;23.362;2023-05-23T11:01:12;168022.09;;;22.28;40.02
41688;BME280;27371;42.686;23.362;2023-05-23T11:06:39;168059.75;;;22.42;38.25
41688;BME280;27371;42.686;23.362;2023-05-23T11:09:17;168040.91;;;22.35;38.08
41688;BME280;27371;42.686;23.362;2023-05-23T11:17:16;167988.41;;;22.15;38.43
41688;BME280;27371;42.686;23.362;2023-05-23T11:19:58;167977.63;;;22.11;37.92
41688;BME280;27371;42.686;23.362;2023-05-23T11:22:28;168000.56;;;22.19;37.29
41688;BME280;27371;42.686;23.362;2023-05-23T11:24:57;167988.41;;;22.15;36.64
41688;BME280;27371;42.686;23.362;2023-05-23T11:27:32;167995.13;;;22.17;36.22
41688;BME280;27371;42.686;23.362;2023-05-23T11:30:08;168031.50;;;22.31;36.63
41688;BME280;27371;42.686;23.362;2023-05-23T11:32:35;168000.56;;;22.19;36.39
41688;BME280;27371;42.686;23.362;2023-05-23T11:35:03;168027.44;;;22.30;36.11
41688;BME280;27371;42.686;23.362;2023-05-23T11:37:29;168071.81;;;22.46;37.07
41688;BME280;27371;42.686;23.362;2023-05-23T11:39:56;168120.25;;;22.65;37.76
41688;BME280;27371;42.686;23.362;2023-05-23T11:42:22;168165.97;;;22.82;37.63
41688;BME280;27371;42.686;23.362;2023-05-23T11:44:49;168206.38;;;22.98;37.53
41688;BME280;27371;42.686;23.362;2023-05-23T11:47:16;168168.69;;;22.83;36.18
41688;BME280;27371;42.686;23.362;2023-05-23T11:49:44;168071.81;;;22.46;37.25
41688;BME280;27371;42.686;23.362;2023-05-23T11:52:11;168062.41;;;22.43;37.60
41688;BME280;27371;42.686;23.362;2023-05-23T11:54:41;168067.81;;;22.45;37.48
41688;BME280;27371;42.686;23.362;2023-05-23T11:57:12;168088.00;;;22.53;38.18
41688;BME280;27371;42.686;23.362;2023-05-23T11:59:38;168171.34;;;22.84;37.34
41688;BME280;27371;42.686;23.362;2023-05-23T12:02:05;168191.53;;;22.92;38.09
41688;BME280;27371;42.686;23.362;2023-05-23T12:04:33;168194.22;;;22.93;37.35
41688;BME280;27371;42.686;23.362;2023-05-23T12:07:03;168096.06;;;22.56;35.61
41688;BME280;27371;42.686;23.362;2023-05-23T12:09:29;168144.44;;;22.74;36.24
41688;BME280;27371;42.686;23.362;2023-05-23T12:11:54;168117.56;;;22.64;37.07
41688;BME280;27371;42.686;23.362;2023-05-23T12:14:20;168090.66;;;22.54;36.64
41688;BME280;27371;42.686;23.362;2023-05-23T12:16:46;168093.34;;;22.55;36.68
41688;BME280;27371;42.686;23.362;2023-05-23T12:19:11;168093.34;;;22.55;36.53
41688;BME280;27371;42.686;23.362;2023-05-23T12:21:49;168124.31;;;22.66;36.44
41688;BME280;27371;42.686;23.362;2023-05-23T12:24:19;167985.75;;;22.14;35.98
41688;BME280;27371;42.686;23.362;2023-05-23T12:26:52;168148.50;;;22.76;37.22
41688;BME280;27371;42.686;23.362;2023-05-23T12:29:33;168144.44;;;22.74;36.11
41688;BME280;27371;42.686;23.362;2023-05-23T12:32:00;168118.91;;;22.64;36.82
41688;BME280;27371;42.686;23.362;2023-05-23T12:34:26;168067.81;;;22.45;37.32
41688;BME280;27371;42.686;23.362;2023-05-23T12:36:56;168132.38;;;22.70;37.10
41688;BME280;27371;42.686;23.362;2023-05-23T12:39:26;168062.41;;;22.43;36.90
41688;BME280;27371;42.686;23.362;2023-05-23T12:41:53;168022.09;;;22.28;35.99
41688;BME280;27371;42.686;23.362;2023-05-23T12:44:23;168124.31;;;22.66;34.78
41688;BME280;27371;42.686;23.362;2023-05-23T12:46:48;168128.31;;;22.68;31.65
41688;BME280;27371;42.686;23.362;2023-05-23T12:49:14;168092.00;;;22.54;32.01
41688;BME280;27371;42.686;23.362;2023-05-23T12:51:39;168028.78;;;22.30;31.70
41688;BME280;27371;42.686;23.362;2023-05-23T12:54:07;168110.84;;;22.61;32.21
41688;BME280;27371;42.686;23.362;2023-05-23T12:56:33;168078.53;;;22.49;32.47